Time;durP1;ratioP1;P1;durP2;ratioP2;P2;SDS_P1;SDS_P2;PMS_P1;PMS_P2;Temp;Humidity;BMP_temperature;BMP_pressure;BME280_temperature;BME280_humidity;BME280_pressure;Samples;Min_cycle;Max_cycle;Signal;HPM_P1;HPM_P2
2021/11/18 00:00:54;;;;;;;5.70;5.10;;;6.20;99.90;;;;;;1923602;73;21306;-77
2021/11/18 00:03:20;;;;;;;9.05;5.85;;;6.40;99.90;;;;;;1921037;73;21123;-77
2021/11/18 00:05:46;;;;;;;7.42;5.60;;;6.30;99.90;;;;;;1926990;73;21161;-77
2021/11/18 00:08:12;;;;;;;9.38;5.87;;;6.30;99.90;;;;;;1947636;72;21041;-78
2021/11/18 00:10:38;;;;;;;9.85;6.10;;;6.30;99.90;;;;;;1947624;72;21145;-77
2021/11/18 00:13:04;;;;;;;6.28;5.67;;;6.30;99.90;;;;;;1934205;72;21152;-77
2021/11/18 00:15:30;;;;;;;6.78;5.87;;;6.20;99.90;;;;;;1944318;73;21222;-77
2021/11/18 00:17:58;;;;;;;9.13;6.30;;;6.20;99.90;;;;;;1926670;73;21495;-77
2021/11/18 00:20:24;;;;;;;8.53;6.70;;;6.20;99.90;;;;;;1929710;72;21182;-76
2021/11/18 00:22:51;;;;;;;8.63;5.90;;;6.20;99.90;;;;;;1919188;73;21039;-77
2021/11/18 00:25:17;;;;;;;21.05;6.62;;;6.20;99.90;;;;;;1936334;72;21088;-77
2021/11/18 00:27:43;;;;;;;7.45;6.35;;;6.10;99.90;;;;;;1927511;73;21217;-76
2021/11/18 00:30:09;;;;;;;11.80;7.22;;;6.20;99.90;;;;;;1929264;73;21086;-77
2021/11/18 00:32:37;;;;;;;7.45;6.10;;;6.20;99.90;;;;;;1935233;73;21487;-76
2021/11/18 00:35:03;;;;;;;7.03;6.33;;;6.10;99.90;;;;;;1944101;73;21092;-77
2021/11/18 00:37:29;;;;;;;11.70;6.45;;;6.20;99.90;;;;;;1943260;72;21088;-76
2021/11/18 00:39:55;;;;;;;6.85;5.72;;;6.20;99.90;;;;;;1922974;73;21146;-76
2021/11/18 00:42:21;;;;;;;10.85;7.10;;;6.20;99.90;;;;;;1920858;73;21088;-76
2021/11/18 00:44:49;;;;;;;7.17;6.20;;;6.20;99.90;;;;;;1925445;73;21138;-77
2021/11/18 00:47:15;;;;;;;9.55;6.55;;;6.20;99.90;;;;;;1930666;72;21084;-77
2021/11/18 00:49:41;;;;;;;10.35;6.25;;;6.20;99.90;;;;;;1945604;72;21057;-76
2021/11/18 00:52:07;;;;;;;10.05;5.92;;;6.10;99.90;;;;;;1946539;72;21134;-76
2021/11/18 00:54:33;;;;;;;8.83;6.87;;;6.10;99.90;;;;;;1920366;73;21264;-77
2021/11/18 00:56:59;;;;;;;13.58;6.92;;;6.10;99.90;;;;;;1945828;71;21100;-76
2021/11/18 00:59:25;;;;;;;8.50;6.62;;;6.10;99.90;;;;;;1946745;71;21477;-76
2021/11/18 01:01:52;;;;;;;8.10;6.45;;;6.10;99.90;;;;;;1937905;72;21079;-76
2021/11/18 01:04:19;;;;;;;12.43;6.72;;;6.10;99.90;;;;;;1933860;72;21072;-77
2021/11/18 01:06:45;;;;;;;9.18;6.53;;;6.10;99.90;;;;;;1940895;71;21155;-77
2021/11/18 01:09:11;;;;;;;11.12;6.90;;;6.10;99.90;;;;;;1931810;72;21142;-76
2021/11/18 01:11:37;;;;;;;9.13;6.33;;;6.20;99.90;;;;;;1937130;72;21084;-77
2021/11/18 01:14:03;;;;;;;7.83;6.70;;;6.30;99.90;;;;;;1924824;72;21071;-77
2021/11/18 01:16:29;;;;;;;12.88;7.03;;;6.40;99.90;;;;;;1948876;72;21076;-77
2021/11/18 01:18:56;;;;;;;8.85;6.62;;;6.20;99.90;;;;;;1940660;72;21153;-75
2021/11/18 01:21:22;;;;;;;11.97;7.45;;;6.10;99.90;;;;;;1931060;71;21153;-76
2021/11/18 01:23:48;;;;;;;9.30;6.62;;;6.10;99.90;;;;;;1941309;71;21071;-77
2021/11/18 01:26:15;;;;;;;11.68;7.95;;;6.10;99.90;;;;;;1934333;72;21166;-77
2021/11/18 01:28:41;;;;;;;8.78;7.53;;;6.20;99.90;;;;;;1938029;72;21163;-78
2021/11/18 01:31:07;;;;;;;11.57;7.80;;;6.20;99.90;;;;;;1926233;72;21084;-77
2021/11/18 01:33:33;;;;;;;10.43;7.55;;;6.10;99.90;;;;;;1949304;72;21142;-76
2021/11/18 01:35:59;;;;;;;10.98;8.90;;;6.20;99.90;;;;;;1918633;73;21087;-77
2021/11/18 01:38:26;;;;;;;14.55;9.23;;;6.00;99.90;;;;;;1937423;72;21161;-76
2021/11/18 01:40:52;;;;;;;13.13;9.28;;;6.10;99.90;;;;;;1930344;72;21496;-77
2021/11/18 01:43:18;;;;;;;12.13;9.45;;;6.20;99.90;;;;;;1923014;72;21062;-76
2021/11/18 01:45:44;;;;;;;12.98;9.63;;;6.20;99.90;;;;;;1925203;73;21558;-77
2021/11/18 01:48:10;;;;;;;11.93;9.05;;;6.10;99.90;;;;;;1943824;71;21070;-77
2021/11/18 01:50:36;;;;;;;13.98;9.15;;;6.20;99.90;;;;;;1931591;72;21136;-76
2021/11/18 01:53:04;;;;;;;13.62;10.45;;;6.10;99.90;;;;;;1933860;73;21207;-77
2021/11/18 01:55:30;;;;;;;16.70;10.82;;;6.10;99.90;;;;;;1937813;73;21146;-76
2021/11/18 01:57:56;;;;;;;13.60;10.20;;;6.00;99.90;;;;;;1919643;72;21080;-77
2021/11/18 02:00:22;;;;;;;14.05;10.40;;;6.10;99.90;;;;;;1923025;72;21080;-77
2021/11/18 02:02:49;;;;;;;12.95;10.45;;;6.10;99.90;;;;;;1943577;72;21054;-77
2021/11/18 02:05:15;;;;;;;14.80;10.63;;;6.20;99.90;;;;;;1918343;72;21158;-77
2021/11/18 02:07:41;;;;;;;16.02;9.70;;;6.20;99.90;;;;;;1930913;73;21165;-77
2021/11/18 02:10:07;;;;;;;17.52;10.58;;;6.30;99.90;;;;;;1938419;72;21092;-77
2021/11/18 02:12:33;;;;;;;11.83;10.43;;;6.30;99.90;;;;;;1930839;72;21076;-77
2021/11/18 02:14:59;;;;;;;12.00;10.78;;;6.30;99.90;;;;;;1929683;73;21096;-77
2021/11/18 02:17:25;;;;;;;15.83;10.30;;;6.30;99.90;;;;;;1938117;72;21041;-77
2021/11/18 02:19:51;;;;;;;11.88;9.93;;;6.30;99.90;;;;;;1928157;72;21887;-77
2021/11/18 02:22:18;;;;;;;13.40;10.78;;;6.20;99.90;;;;;;1957830;73;21676;-77
2021/11/18 02:24:44;;;;;;;18.17;10.78;;;6.10;99.90;;;;;;1943934;72;21445;-77
2021/11/18 02:27:10;;;;;;;16.42;11.22;;;6.10;99.90;;;;;;1937147;73;21466;-78
2021/11/18 02:29:38;;;;;;;16.17;10.90;;;6.20;99.90;;;;;;1940298;71;21566;-78
2021/11/18 02:32:04;;;;;;;16.52;11.50;;;6.20;99.90;;;;;;1935013;71;21083;-77
2021/11/18 02:34:30;;;;;;;14.38;10.90;;;6.20;99.90;;;;;;1925175;73;21376;-77
2021/11/18 02:36:56;;;;;;;13.58;10.93;;;6.30;99.90;;;;;;1920636;73;21210;-79
2021/11/18 02:39:22;;;;;;;16.23;11.25;;;6.20;99.90;;;;;;1941309;71;21488;-77
2021/11/18 02:41:48;;;;;;;17.25;11.00;;;6.20;99.90;;;;;;1936235;72;21500;-77
2021/11/18 02:44:14;;;;;;;15.65;11.48;;;6.30;99.90;;;;;;1932879;72;21467;-78
2021/11/18 02:46:40;;;;;;;15.25;11.78;;;6.20;99.90;;;;;;1930124;73;21471;-76
2021/11/18 02:49:07;;;;;;;15.05;10.98;;;6.20;99.90;;;;;;1933233;73;21581;-76
2021/11/18 02:51:33;;;;;;;15.13;10.82;;;6.30;99.90;;;;;;1939439;72;21067;-76
2021/11/18 02:53:59;;;;;;;13.13;10.75;;;6.30;99.90;;;;;;1926492;72;21195;-75
2021/11/18 02:56:28;;;;;;;16.10;11.30;;;6.30;99.90;;;;;;1942018;73;21040;-76
2021/11/18 02:58:53;;;;;;;16.07;12.33;;;6.40;99.90;;;;;;1947071;73;21486;-76
2021/11/18 03:01:19;;;;;;;14.63;11.12;;;6.30;99.90;;;;;;1933080;73;21540;-75
2021/11/18 03:03:45;;;;;;;13.40;11.30;;;6.20;99.90;;;;;;1941601;71;21064;-76
2021/11/18 03:06:11;;;;;;;13.48;11.85;;;6.30;99.90;;;;;;1925358;73;21198;-76
2021/11/18 03:08:37;;;;;;;15.35;11.22;;;6.40;99.90;;;;;;1949690;71;21079;-75
2021/11/18 03:11:03;;;;;;;14.35;11.63;;;6.30;99.90;;;;;;1938480;72;21063;-76
2021/11/18 03:13:30;;;;;;;13.22;11.83;;;6.40;99.90;;;;;;1932692;73;21121;-76
2021/11/18 03:15:57;;;;;;;14.68;11.03;;;6.30;99.90;;;;;;1940062;71;21067;-76
2021/11/18 03:18:23;;;;;;;16.77;11.35;;;6.30;99.90;;;;;;1948765;72;21210;-76
2021/11/18 03:20:49;;;;;;;12.58;11.25;;;6.20;99.90;;;;;;1926421;73;21080;-76
2021/11/18 03:23:15;;;;;;;13.32;10.90;;;6.30;99.90;;;;;;1924495;73;21084;-76
2021/11/18 03:25:43;;;;;;;15.75;12.05;;;6.30;99.90;;;;;;1931034;72;21133;-77
2021/11/18 03:28:11;;;;;;;21.87;12.45;;;6.30;99.90;;;;;;1934080;72;21505;-75
2021/11/18 03:30:38;;;;;;;16.77;11.63;;;6.30;99.90;;;;;;1941244;72;21098;-74
2021/11/18 03:33:04;;;;;;;16.07;11.45;;;6.20;99.90;;;;;;1942168;72;21075;-71
2021/11/18 03:35:30;;;;;;;14.18;11.68;;;6.30;99.90;;;;;;1941284;71;21150;-75
2021/11/18 03:37:56;;;;;;;17.30;11.93;;;6.20;99.90;;;;;;1939155;71;21184;-75
2021/11/18 03:40:23;;;;;;;18.27;12.28;;;6.30;99.90;;;;;;1930799;72;21110;-74
2021/11/18 03:42:49;;;;;;;15.43;12.65;;;6.20;99.90;;;;;;1956870;71;21083;-75
2021/11/18 03:45:15;;;;;;;15.95;11.57;;;6.30;99.90;;;;;;1929982;72;21075;-75
2021/11/18 03:47:42;;;;;;;17.45;12.63;;;6.30;99.90;;;;;;1941068;72;21311;-76
2021/11/18 03:50:08;;;;;;;15.78;12.58;;;6.30;99.90;;;;;;1931510;72;21154;-75
2021/11/18 03:52:34;;;;;;;17.77;13.13;;;6.30;99.90;;;;;;1927353;72;21080;-75
2021/11/18 03:55:00;;;;;;;19.92;12.70;;;6.30;99.90;;;;;;1921630;72;21154;-75
2021/11/18 03:57:26;;;;;;;17.90;13.75;;;6.30;99.90;;;;;;1925089;73;21088;-75
2021/11/18 03:59:52;;;;;;;18.02;13.15;;;6.30;99.90;;;;;;1934881;72;21173;-75
2021/11/18 04:02:19;;;;;;;18.10;13.85;;;6.30;99.90;;;;;;1920496;72;21053;-75
2021/11/18 04:04:45;;;;;;;17.87;13.68;;;6.30;99.90;;;;;;1909006;73;21141;-75
2021/11/18 04:07:11;;;;;;;17.02;12.93;;;6.20;99.90;;;;;;1927015;72;21148;-74
2021/11/18 04:09:37;;;;;;;15.43;12.90;;;6.30;99.90;;;;;;1934512;73;21158;-75
2021/11/18 04:12:03;;;;;;;15.38;13.03;;;6.40;99.90;;;;;;1918899;73;21441;-75
2021/11/18 04:14:29;;;;;;;22.67;12.78;;;6.30;99.90;;;;;;1916399;73;21478;-74
2021/11/18 04:16:55;;;;;;;17.77;13.30;;;6.30;99.90;;;;;;1921530;73;21486;-74
2021/11/18 04:19:21;;;;;;;17.70;13.88;;;6.30;99.90;;;;;;1923576;72;21558;-74
2021/11/18 04:21:48;;;;;;;20.08;12.55;;;6.50;99.90;;;;;;1925904;72;21416;-74
2021/11/18 04:24:14;;;;;;;21.60;13.83;;;6.50;99.90;;;;;;1927315;72;21133;-75
2021/11/18 04:26:41;;;;;;;19.85;13.40;;;6.40;99.90;;;;;;1931695;73;21067;-74
2021/11/18 04:29:07;;;;;;;19.95;13.58;;;6.40;99.90;;;;;;1958270;71;21303;-75
2021/11/18 04:31:33;;;;;;;18.45;13.95;;;6.40;99.90;;;;;;1941881;71;21074;-73
2021/11/18 04:33:59;;;;;;;22.00;14.60;;;6.30;99.90;;;;;;1943100;72;21177;-74
2021/11/18 04:36:25;;;;;;;18.77;13.75;;;6.30;99.90;;;;;;1933680;72;21199;-74
2021/11/18 04:38:54;;;;;;;19.70;13.98;;;6.30;99.90;;;;;;1923532;72;21476;-75
2021/11/18 04:41:21;;;;;;;18.40;13.88;;;6.20;99.90;;;;;;1928523;73;21472;-74
2021/11/18 04:43:47;;;;;;;23.22;14.23;;;6.30;99.90;;;;;;1942612;71;21516;-75
2021/11/18 04:46:13;;;;;;;20.72;15.45;;;6.30;99.90;;;;;;1948418;72;21493;-75
2021/11/18 04:48:41;;;;;;;22.87;14.07;;;6.30;99.90;;;;;;1938660;72;21141;-75
2021/11/18 04:51:07;;;;;;;19.12;14.00;;;6.30;99.90;;;;;;1940073;71;21555;-73
2021/11/18 04:53:33;;;;;;;21.45;14.85;;;6.20;99.90;;;;;;1939829;71;21441;-75
2021/11/18 04:55:59;;;;;;;19.20;14.35;;;6.20;99.90;;;;;;1906357;73;21353;-74
2021/11/18 04:58:25;;;;;;;21.23;13.85;;;6.30;99.90;;;;;;1927653;72;21088;-75
2021/11/18 05:00:51;;;;;;;21.85;15.05;;;6.30;99.90;;;;;;1934490;73;21153;-75
2021/11/18 05:03:18;;;;;;;18.90;14.25;;;6.30;99.90;;;;;;1936248;73;21310;-75
2021/11/18 05:05:44;;;;;;;18.75;13.72;;;6.30;99.90;;;;;;1940217;72;21157;-75
2021/11/18 05:08:10;;;;;;;20.00;13.32;;;6.30;99.90;;;;;;1942839;72;21080;-75
2021/11/18 05:10:36;;;;;;;17.65;12.50;;;6.40;99.90;;;;;;1939832;72;21166;-74
2021/11/18 05:13:02;;;;;;;20.90;13.03;;;6.40;99.90;;;;;;1915944;73;21045;-75
2021/11/18 05:15:28;;;;;;;15.78;12.28;;;6.40;99.90;;;;;;1934763;73;21204;-75
2021/11/18 05:17:54;;;;;;;18.37;12.30;;;6.40;99.90;;;;;;1935425;73;21084;-75
2021/11/18 05:20:20;;;;;;;19.90;13.40;;;6.40;99.90;;;;;;1932594;72;21290;-75
2021/11/18 05:22:47;;;;;;;22.85;14.38;;;6.50;99.90;;;;;;1935428;73;21435;-75
2021/11/18 05:25:13;;;;;;;24.50;14.53;;;6.60;99.90;;;;;;1925248;72;21052;-74
2021/11/18 05:27:39;;;;;;;19.02;13.85;;;6.50;99.90;;;;;;1924429;72;21357;-75
2021/11/18 05:30:05;;;;;;;28.45;14.60;;;6.40;99.90;;;;;;1941583;73;21132;-75
2021/11/18 05:32:32;;;;;;;24.12;13.43;;;6.40;99.90;;;;;;1932087;73;21085;-75
2021/11/18 05:34:59;;;;;;;16.52;13.13;;;6.50;99.90;;;;;;1939668;72;21088;-75
2021/11/18 05:37:25;;;;;;;19.57;14.07;;;6.40;99.90;;;;;;1943056;71;21124;-75
2021/11/18 05:39:51;;;;;;;23.20;14.58;;;6.50;99.90;;;;;;1946895;73;21076;-75
2021/11/18 05:42:17;;;;;;;21.33;13.75;;;6.40;99.90;;;;;;1918078;73;21232;-76
2021/11/18 05:44:48;;;;;;;18.62;13.72;;;6.40;99.90;;;;;;1936526;73;21059;-75
2021/11/18 05:47:11;;;;;;;19.60;13.88;;;6.40;99.90;;;;;;1934890;71;21125;-75
2021/11/18 05:49:38;;;;;;;23.80;13.70;;;6.40;99.90;;;;;;1935231;73;21141;-76
2021/11/18 05:52:04;;;;;;;20.37;14.13;;;6.40;99.90;;;;;;1946722;71;21070;-76
2021/11/18 05:54:30;;;;;;;34.83;14.23;;;6.40;99.90;;;;;;1938007;71;21140;-75
2021/11/18 05:56:56;;;;;;;24.87;14.18;;;6.30;99.90;;;;;;1935411;73;21146;-75
2021/11/18 05:59:22;;;;;;;25.00;13.10;;;6.40;99.90;;;;;;1919568;73;21244;-75
2021/11/18 06:01:48;;;;;;;23.57;13.98;;;6.40;99.90;;;;;;1929585;71;21096;-76
2021/11/18 06:04:14;;;;;;;18.92;14.00;;;6.40;99.90;;;;;;1936488;73;21458;-77
2021/11/18 06:06:40;;;;;;;24.72;14.07;;;6.30;99.90;;;;;;1924047;72;21538;-78
2021/11/18 06:09:07;;;;;;;19.70;13.45;;;6.40;99.90;;;;;;1930038;72;21547;-78
2021/11/18 06:11:33;;;;;;;26.52;14.53;;;6.40;99.90;;;;;;1933422;72;21537;-78
2021/11/18 06:13:59;;;;;;;18.73;14.18;;;6.50;99.90;;;;;;1928508;72;21493;-76
2021/11/18 06:16:26;;;;;;;17.62;13.08;;;6.50;99.90;;;;;;1932838;71;21423;-74
2021/11/18 06:18:52;;;;;;;21.90;13.32;;;6.40;99.90;;;;;;1931706;73;21175;-76
2021/11/18 06:21:18;;;;;;;22.65;14.63;;;6.40;99.90;;;;;;1925951;71;21126;-76
2021/11/18 06:23:44;;;;;;;20.97;13.78;;;6.40;99.90;;;;;;1946884;72;21127;-74
2021/11/18 06:26:13;;;;;;;22.07;13.78;;;6.40;99.90;;;;;;1951550;71;21075;-75
2021/11/18 06:28:38;;;;;;;23.15;14.23;;;6.40;99.90;;;;;;1931344;72;21184;-76
2021/11/18 06:31:05;;;;;;;20.60;14.05;;;6.40;99.90;;;;;;1923686;72;21154;-77
2021/11/18 06:33:32;;;;;;;19.82;13.72;;;6.40;99.90;;;;;;1942448;71;21561;-76
2021/11/18 06:35:58;;;;;;;17.77;13.75;;;6.40;99.90;;;;;;1926214;73;21155;-76
2021/11/18 06:38:24;;;;;;;21.75;13.55;;;6.60;99.90;;;;;;1944931;72;21146;-77
2021/11/18 06:40:50;;;;;;;24.37;12.95;;;6.70;99.90;;;;;;1928889;73;21167;-76
2021/11/18 06:43:16;;;;;;;18.73;13.95;;;6.70;99.90;;;;;;1918922;73;21198;-75
2021/11/18 06:45:45;;;;;;;22.98;13.35;;;6.70;99.90;;;;;;1937748;73;21079;-75
2021/11/18 06:48:10;;;;;;;24.47;13.90;;;6.60;99.90;;;;;;1934521;72;21150;-76
2021/11/18 06:50:36;;;;;;;22.37;14.20;;;6.60;99.90;;;;;;1932894;73;21111;-76
2021/11/18 06:53:02;;;;;;;22.67;14.23;;;6.70;99.90;;;;;;1934924;73;21063;-77
2021/11/18 06:55:29;;;;;;;19.52;13.95;;;6.70;99.90;;;;;;1949727;72;21144;-79
2021/11/18 06:57:55;;;;;;;18.77;13.08;;;6.70;99.90;;;;;;1936643;72;21075;-76
2021/11/18 07:00:21;;;;;;;18.52;13.18;;;6.70;99.90;;;;;;1936806;71;21053;-76
2021/11/18 07:02:47;;;;;;;22.20;13.28;;;6.70;99.90;;;;;;1922732;72;21084;-75
2021/11/18 07:05:13;;;;;;;17.52;12.80;;;6.60;99.90;;;;;;1931629;73;21249;-75
2021/11/18 07:07:39;;;;;;;23.80;12.93;;;6.60;99.90;;;;;;1929421;72;21084;-76
2021/11/18 07:10:05;;;;;;;19.48;12.85;;;6.70;99.90;;;;;;1949305;72;21143;-76
2021/11/18 07:12:31;;;;;;;18.48;12.45;;;6.70;99.90;;;;;;1938583;73;21578;-77
2021/11/18 07:14:58;;;;;;;20.52;13.83;;;6.70;99.90;;;;;;1941960;72;21223;-75
2021/11/18 07:17:24;;;;;;;18.37;13.75;;;6.60;99.90;;;;;;1950133;73;21144;-75
2021/11/18 07:19:50;;;;;;;18.87;12.85;;;6.60;99.90;;;;;;1945681;71;21069;-75
2021/11/18 07:22:16;;;;;;;20.70;12.98;;;6.60;99.90;;;;;;1939004;72;21079;-76
2021/11/18 07:24:42;;;;;;;22.27;13.30;;;6.60;99.90;;;;;;1923637;73;21456;-77
2021/11/18 07:27:08;;;;;;;18.95;12.82;;;6.80;99.90;;;;;;1944896;72;21416;-76
2021/11/18 07:29:34;;;;;;;21.52;12.78;;;6.70;99.90;;;;;;1926742;73;21512;-76
2021/11/18 07:32:00;;;;;;;22.13;11.30;;;6.80;99.90;;;;;;1929750;73;21483;-76
2021/11/18 07:34:26;;;;;;;19.17;12.95;;;6.70;99.90;;;;;;1932281;71;21473;-76
2021/11/18 07:36:55;;;;;;;22.65;13.53;;;6.70;99.90;;;;;;1942690;73;21044;-76
2021/11/18 07:39:22;;;;;;;22.45;12.30;;;6.70;99.90;;;;;;1939463;72;21113;-77
2021/11/18 07:41:48;;;;;;;18.50;12.47;;;6.70;99.90;;;;;;1947564;71;21082;-78
2021/11/18 07:44:14;;;;;;;17.98;11.65;;;6.70;99.90;;;;;;1937260;73;21071;-76
2021/11/18 07:46:41;;;;;;;15.95;12.03;;;6.80;99.90;;;;;;1943684;71;21499;-78
2021/11/18 07:49:08;;;;;;;22.10;11.97;;;6.80;99.90;;;;;;1945700;71;21126;-77
2021/11/18 07:51:36;;;;;;;20.25;12.53;;;6.90;99.90;;;;;;1938342;72;21236;-77
2021/11/18 07:54:02;;;;;;;22.70;11.38;;;6.90;99.90;;;;;;1934923;72;21144;-76
2021/11/18 07:56:30;;;;;;;15.08;11.50;;;6.90;99.90;;;;;;1946230;73;21082;-75
2021/11/18 07:58:56;;;;;;;15.63;11.88;;;6.90;99.90;;;;;;1932842;73;21243;-75
2021/11/18 08:01:22;;;;;;;17.27;12.33;;;6.90;99.90;;;;;;1937964;72;21197;-75
2021/11/18 08:03:49;;;;;;;20.92;12.45;;;6.90;99.90;;;;;;1930060;72;21151;-74
2021/11/18 08:06:15;;;;;;;21.23;12.05;;;6.90;99.90;;;;;;1950726;71;21503;-75
2021/11/18 08:08:48;;;;;;;22.35;12.68;;;6.90;99.90;;;;;;1947290;71;21538;-75
2021/11/18 08:11:15;;;;;;;17.17;12.40;;;7.10;99.90;;;;;;1934841;73;21141;-75
2021/11/18 08:13:42;;;;;;;20.60;12.25;;;7.10;99.90;;;;;;1934616;73;21141;-75
2021/11/18 08:16:08;;;;;;;17.20;11.93;;;7.10;99.90;;;;;;1924860;72;21203;-75
2021/11/18 08:18:34;;;;;;;23.90;12.00;;;7.20;99.90;;;;;;1939963;73;21083;-75
2021/11/18 08:21:00;;;;;;;26.05;13.58;;;7.10;99.90;;;;;;1941753;73;21040;-75
2021/11/18 08:23:31;;;;;;;23.83;12.78;;;7.10;99.90;;;;;;1929850;73;21468;-75
2021/11/18 08:25:54;;;;;;;22.98;13.75;;;7.10;99.90;;;;;;1942177;72;21110;-75
2021/11/18 08:28:20;;;;;;;21.55;12.70;;;7.10;99.90;;;;;;1939369;71;21088;-75
2021/11/18 08:30:46;;;;;;;21.75;13.88;;;7.10;99.90;;;;;;1918867;72;21057;-76
2021/11/18 08:33:12;;;;;;;30.60;13.88;;;7.10;99.90;;;;;;1923978;73;21074;-75
2021/11/18 08:35:38;;;;;;;31.37;15.48;;;7.10;99.90;;;;;;1935619;73;21181;-74
2021/11/18 08:38:05;;;;;;;25.02;14.50;;;7.20;99.90;;;;;;1925324;73;21633;-75
2021/11/18 08:40:31;;;;;;;23.70;14.40;;;7.10;99.90;;;;;;1936720;72;21036;-75
2021/11/18 08:42:57;;;;;;;22.65;13.25;;;7.10;99.90;;;;;;1942363;73;21158;-76
2021/11/18 08:45:23;;;;;;;23.02;13.45;;;7.20;99.90;;;;;;1944637;73;21072;-75
2021/11/18 08:47:49;;;;;;;22.20;13.10;;;7.20;99.90;;;;;;1943428;72;21092;-75
2021/11/18 08:50:16;;;;;;;28.12;14.63;;;7.20;99.90;;;;;;1934037;72;21080;-74
2021/11/18 08:52:42;;;;;;;24.37;14.28;;;7.30;99.90;;;;;;1935631;71;21032;-75
2021/11/18 08:55:08;;;;;;;26.93;14.18;;;7.30;99.90;;;;;;1928538;73;21168;-74
2021/11/18 08:57:34;;;;;;;34.88;15.60;;;7.30;99.90;;;;;;1919738;73;21558;-77
2021/11/18 09:00:00;;;;;;;37.13;16.07;;;7.40;99.90;;;;;;1927603;73;21484;-77
2021/11/18 09:02:27;;;;;;;20.48;14.28;;;7.40;99.90;;;;;;1919426;73;21433;-77
2021/11/18 09:04:53;;;;;;;26.68;15.30;;;7.40;99.90;;;;;;1936598;72;21088;-77
2021/11/18 09:07:19;;;;;;;35.88;15.35;;;7.40;99.90;;;;;;1920306;73;21206;-76
2021/11/18 09:09:45;;;;;;;27.35;16.27;;;7.40;99.90;;;;;;1943318;72;21202;-74
2021/11/18 09:12:11;;;;;;;34.18;17.27;;;7.50;99.90;;;;;;1929624;72;21142;-75
2021/11/18 09:14:38;;;;;;;35.23;15.53;;;7.40;99.90;;;;;;1941040;72;21137;-75
2021/11/18 09:17:04;;;;;;;29.32;15.88;;;7.50;99.90;;;;;;1925358;72;21095;-73
2021/11/18 09:19:30;;;;;;;35.25;15.63;;;7.70;99.90;;;;;;1947035;72;21472;-75
2021/11/18 09:21:56;;;;;;;32.17;15.38;;;7.80;99.90;;;;;;1937996;72;21483;-76
2021/11/18 09:24:23;;;;;;;46.98;16.62;;;7.80;99.90;;;;;;1932847;73;21049;-74
2021/11/18 09:26:49;;;;;;;29.02;15.40;;;7.80;99.90;;;;;;1939404;72;21123;-73
2021/11/18 09:29:15;;;;;;;32.33;16.57;;;8.00;99.90;;;;;;1931412;72;21149;-75
2021/11/18 09:31:43;;;;;;;22.85;15.48;;;8.10;99.90;;;;;;1940913;71;21557;-73
2021/11/18 09:34:09;;;;;;;28.20;15.23;;;8.00;99.90;;;;;;1936086;72;21329;-74
2021/11/18 09:36:35;;;;;;;28.73;15.85;;;8.00;99.90;;;;;;1944941;73;21131;-75
2021/11/18 09:39:01;;;;;;;31.52;16.65;;;7.80;99.90;;;;;;1937388;72;21076;-74
2021/11/18 09:41:28;;;;;;;30.68;16.35;;;7.80;99.90;;;;;;1938416;71;21067;-75
2021/11/18 09:43:54;;;;;;;34.40;15.08;;;8.00;99.90;;;;;;1934961;71;21074;-74
2021/11/18 09:46:21;;;;;;;35.90;16.52;;;8.20;99.90;;;;;;1921660;73;21100;-74
2021/11/18 09:48:47;;;;;;;31.85;15.75;;;8.20;99.90;;;;;;1935538;71;21090;-75
2021/11/18 09:51:14;;;;;;;47.88;15.83;;;8.40;99.90;;;;;;1940580;71;21547;-74
2021/11/18 09:53:41;;;;;;;38.33;16.07;;;8.30;99.90;;;;;;1936753;72;21101;-75
2021/11/18 09:56:07;;;;;;;39.38;16.05;;;8.40;99.90;;;;;;1936242;72;21204;-75
2021/11/18 09:58:33;;;;;;;30.75;15.43;;;8.40;99.90;;;;;;1938247;71;21039;-73
2021/11/18 10:01:00;;;;;;;33.78;16.82;;;8.60;99.90;;;;;;1928963;73;21106;-73
2021/11/18 10:03:26;;;;;;;32.80;17.07;;;8.70;99.90;;;;;;1935551;73;21687;-74
2021/11/18 10:05:54;;;;;;;23.22;14.75;;;8.70;99.90;;;;;;1943837;71;21186;-74
2021/11/18 10:08:20;;;;;;;27.45;15.43;;;9.00;99.90;;;;;;1930844;71;21216;-74
2021/11/18 10:10:46;;;;;;;26.40;13.83;;;9.20;99.90;;;;;;1927818;72;21115;-74
2021/11/18 10:13:12;;;;;;;25.92;15.08;;;9.60;99.90;;;;;;1950926;71;21148;-75
2021/11/18 10:15:38;;;;;;;31.33;14.40;;;10.00;99.90;;;;;;1921557;72;21193;-74
2021/11/18 10:18:04;;;;;;;26.62;14.23;;;10.30;99.90;;;;;;1945973;72;21041;-74
2021/11/18 10:20:30;;;;;;;24.27;13.88;;;10.30;99.90;;;;;;1930019;72;21160;-74
2021/11/18 10:22:58;;;;;;;22.07;13.08;;;10.40;99.90;;;;;;1939764;73;21554;-74
2021/11/18 10:25:24;;;;;;;24.85;13.50;;;10.20;99.90;;;;;;1922844;72;21116;-75
2021/11/18 10:27:50;;;;;;;24.25;14.40;;;10.00;99.90;;;;;;1934645;73;21069;-74
2021/11/18 10:30:16;;;;;;;20.32;13.68;;;10.00;99.90;;;;;;1935849;72;21146;-75
2021/11/18 10:32:44;;;;;;;22.40;12.70;;;10.10;99.90;;;;;;1950540;72;21080;-75
2021/11/18 10:35:12;;;;;;;23.32;12.93;;;10.20;99.90;;;;;;1931585;72;22432;-76
2021/11/18 10:37:38;;;;;;;32.50;13.15;;;10.30;99.90;;;;;;1948101;72;21096;-75
2021/11/18 10:40:04;;;;;;;19.77;12.55;;;10.20;99.90;;;;;;1941081;72;21088;-75
2021/11/18 10:42:30;;;;;;;21.17;13.58;;;10.00;99.90;;;;;;1938835;73;21165;-75
2021/11/18 10:44:56;;;;;;;22.42;14.00;;;10.00;99.90;;;;;;1939086;71;21076;-75
2021/11/18 10:47:23;;;;;;;23.50;12.93;;;9.60;99.90;;;;;;1939917;71;21471;-75
2021/11/18 10:49:49;;;;;;;27.22;13.08;;;9.50;99.90;;;;;;1921014;73;21079;-75
2021/11/18 10:52:15;;;;;;;22.42;13.68;;;9.40;99.90;;;;;;1945498;72;21142;-75
2021/11/18 10:54:41;;;;;;;34.95;13.68;;;9.40;99.90;;;;;;1915850;73;21084;-75
2021/11/18 10:57:09;;;;;;;18.25;12.37;;;9.10;99.90;;;;;;1928296;72;21068;-76
2021/11/18 10:59:36;;;;;;;22.45;13.38;;;9.00;99.90;;;;;;1925421;72;21130;-75
2021/11/18 11:02:02;;;;;;;37.50;14.85;;;8.80;99.90;;;;;;1924625;72;21210;-78
2021/11/18 11:04:28;;;;;;;23.67;13.70;;;8.70;99.90;;;;;;1931842;72;21078;-76
2021/11/18 11:06:55;;;;;;;20.43;13.38;;;8.60;99.90;;;;;;1928141;72;21072;-77
2021/11/18 11:09:21;;;;;;;20.75;13.58;;;8.60;99.90;;;;;;1937807;72;21084;-77
2021/11/18 11:11:47;;;;;;;23.07;12.60;;;8.60;99.90;;;;;;1926967;73;21080;-77
2021/11/18 11:14:15;;;;;;;21.00;12.73;;;8.70;99.90;;;;;;1935210;71;21074;-77
2021/11/18 11:16:41;;;;;;;19.42;12.15;;;8.80;99.90;;;;;;1935043;72;21146;-77
2021/11/18 11:19:07;;;;;;;26.07;12.85;;;8.70;99.90;;;;;;1931237;71;21142;-77
2021/11/18 11:21:33;;;;;;;21.87;12.07;;;8.70;99.90;;;;;;1942270;72;21076;-77
2021/11/18 11:23:59;;;;;;;19.15;12.15;;;8.70;99.90;;;;;;1938628;72;21146;-76
2021/11/18 11:26:26;;;;;;;16.55;11.70;;;8.70;99.90;;;;;;1939850;73;21146;-77
2021/11/18 11:28:52;;;;;;;16.40;11.65;;;8.60;99.90;;;;;;1939437;72;21078;-75
2021/11/18 11:31:18;;;;;;;16.20;10.50;;;8.60;99.90;;;;;;1930020;72;21160;-76
2021/11/18 11:33:44;;;;;;;15.45;10.60;;;8.60;99.90;;;;;;1920628;73;21130;-76
2021/11/18 11:36:10;;;;;;;13.62;9.68;;;8.60;99.90;;;;;;1928004;72;21224;-76
2021/11/18 11:38:36;;;;;;;16.93;10.00;;;8.70;99.90;;;;;;1957935;72;21516;-76
2021/11/18 11:41:02;;;;;;;17.52;10.13;;;8.80;99.90;;;;;;1934770;71;21474;-76
2021/11/18 11:43:28;;;;;;;14.20;9.08;;;8.80;99.90;;;;;;1944539;71;21625;-75
2021/11/18 11:45:54;;;;;;;12.55;8.70;;;8.90;99.90;;;;;;1927597;71;21570;-75
2021/11/18 11:48:21;;;;;;;16.70;9.35;;;9.00;99.90;;;;;;1942341;72;21553;-75
2021/11/18 11:50:47;;;;;;;16.80;8.95;;;9.10;99.90;;;;;;1935995;73;21065;-76
2021/11/18 11:53:13;;;;;;;11.88;8.75;;;9.00;99.90;;;;;;1919755;73;21084;-76
2021/11/18 11:55:40;;;;;;;14.38;8.88;;;9.10;99.90;;;;;;1940142;72;21052;-75
2021/11/18 11:58:06;;;;;;;12.63;8.65;;;9.10;99.90;;;;;;1935195;72;21067;-76
2021/11/18 12:00:32;;;;;;;12.73;8.45;;;9.20;99.90;;;;;;1944353;72;21145;-76
2021/11/18 12:02:58;;;;;;;14.33;8.70;;;9.20;99.90;;;;;;1932613;73;21084;-76
2021/11/18 12:05:24;;;;;;;13.00;8.95;;;9.40;99.90;;;;;;1948775;72;21086;-76
2021/11/18 12:07:53;;;;;;;16.00;9.10;;;9.50;99.90;;;;;;1944967;72;21158;-77
2021/11/18 12:10:18;;;;;;;11.35;8.78;;;9.50;99.90;;;;;;1935463;73;21123;-75
2021/11/18 12:12:44;;;;;;;13.15;8.75;;;9.30;99.90;;;;;;1943883;73;21076;-74
2021/11/18 12:15:10;;;;;;;15.10;9.80;;;9.40;99.90;;;;;;1935462;72;21201;-75
2021/11/18 12:17:36;;;;;;;12.35;9.00;;;9.50;99.90;;;;;;1946095;71;21511;-75
2021/11/18 12:20:03;;;;;;;14.05;9.40;;;9.50;99.90;;;;;;1940890;71;21036;-75
2021/11/18 12:22:29;;;;;;;11.30;8.63;;;9.50;99.90;;;;;;1926905;72;21043;-77
2021/11/18 12:24:55;;;;;;;13.38;9.00;;;9.50;99.90;;;;;;1927841;72;21577;-75
2021/11/18 12:27:22;;;;;;;12.85;8.68;;;9.60;99.90;;;;;;1930950;73;21488;-76
2021/11/18 12:29:48;;;;;;;11.15;8.78;;;9.80;99.90;;;;;;1938106;72;21550;-75
2021/11/18 12:32:14;;;;;;;14.05;8.95;;;10.10;99.90;;;;;;1940850;73;21080;-75
2021/11/18 12:37:25;;;;;;;11.63;8.68;;;10.10;99.90;;;;;;2034999;69;21066;-76